Aniara — SKJC — position and weather

sailwx.info

Track history (hours):
 
Tides and Currents Weather Stations Pressure Air Temp Water Temp Dewpoint Dewpoint Depression Visibility Wind Speed Wind Dir Waves Ship Positions

Aniara

Last reported at 2016-Jul-20 13:31 UTC. Time now 2016-Jul-29 15:54 UTC.
Position S 31°19' E 037°43'.
Warning: this ship's position is 9 days out of date.

Length 232 m; draft 9.6 m.

Type: Cargo ship. MMSI: 266282000.

Date/timePositionNaut miles runAvg speedWind from/ knotsBaromVisibWave heightAir tempDewpointWater temp
2016-Jul-20 13:31S 31°19' E 037°43'1919.7
2016-Jul-20 12:33S 31°14' E 037°21'2218.7
2016-Jul-20 11:24S 31°10' E 036°57'2019.7
2016-Jul-20 10:24S 31°04' E 036°34'1619.0
2016-Jul-20 09:34S 30°60' E 036°17'1918.6
2016-Jul-20 08:34S 30°55' E 035°56'1818.4
2016-Jul-20 07:33S 30°51' E 035°35'1818.3
2016-Jul-20 06:33S 30°46' E 035°14'1919.3
2016-Jul-20 05:33S 30°41' E 034°52'4419.0
2016-Jul-20 03:14S 30°30' E 034°03'1218.2
2016-Jul-20 02:33S 30°27' E 033°49'2018.4
2016-Jul-20 01:30S 30°22' E 033°27'1718.1
2016-Jul-20 00:33S 30°17' E 033°08'1818.5
2016-Jul-19 23:33S 30°13' E 032°47'1919.0
2016-Jul-19 22:33S 30°08' E 032°26'1918.8
2016-Jul-19 21:33S 30°04' E 032°05'1818.4
2016-Jul-19 20:34S 29°59' E 031°44'1818.0
2016-Jul-19 19:33S 29°55' E 031°24'1817.7
2016-Jul-19 18:34S 29°51' E 031°04'2 1.8
2016-Jul-19 17:33S 29°52' E 031°02'0 0.0
2016-Jul-19 16:33S 29°52' E 031°02'0 0.0
2016-Jul-19 15:33S 29°52' E 031°02'0 0.0
2016-Jul-19 14:33S 29°52' E 031°02'0 0.0
2016-Jul-19 13:33S 29°52' E 031°02'0 0.0
2016-Jul-19 12:33S 29°52' E 031°02'0 0.0
2016-Jul-19 11:33S 29°52' E 031°02'0 0.0
2016-Jul-19 10:33S 29°52' E 031°02'0 0.0
2016-Jul-19 09:33S 29°52' E 031°02'0 0.0
2016-Jul-19 08:33S 29°52' E 031°02'1 0.9
2016-Jul-19 07:33S 29°53' E 031°03'3 3.0
2016-Jul-19 06:33S 29°53' E 031°07'3015.1
2016-Jul-19 04:34S 30°20' E 030°51'1515.3
2016-Jul-19 03:34S 30°33' E 030°42'1615.5
2016-Jul-19 02:34S 30°47' E 030°34'1716.4
2016-Jul-19 01:30S 31°01' E 030°21'  
Track history (hours):
 
Tides and Currents Weather Stations Pressure Air Temp Water Temp Dewpoint Dewpoint Depression Visibility Wind Speed Wind Dir Waves Ship Positions

Aniara

Last reported at 2016-Jul-20 13:31 UTC. Time now 2016-Jul-29 15:54 UTC.
Position S 31°19' E 037°43'.
Warning: this ship's position is 9 days out of date.

Length 232 m; draft 9.6 m.

Type: Cargo ship. MMSI: 266282000.

Date/timePositionNaut miles runAvg speedWind from/ knotsBaromVisibWave heightAir tempDewpointWater temp
2016-Jul-20 13:31S 31°19' E 037°43'1919.7
2016-Jul-20 12:33S 31°14' E 037°21'2218.7
2016-Jul-20 11:24S 31°10' E 036°57'2019.7
2016-Jul-20 10:24S 31°04' E 036°34'1619.0
2016-Jul-20 09:34S 30°60' E 036°17'1918.6
2016-Jul-20 08:34S 30°55' E 035°56'1818.4
2016-Jul-20 07:33S 30°51' E 035°35'1818.3
2016-Jul-20 06:33S 30°46' E 035°14'1919.3
2016-Jul-20 05:33S 30°41' E 034°52'4419.0
2016-Jul-20 03:14S 30°30' E 034°03'1218.2
2016-Jul-20 02:33S 30°27' E 033°49'2018.4
2016-Jul-20 01:30S 30°22' E 033°27'1718.1
2016-Jul-20 00:33S 30°17' E 033°08'1818.5
2016-Jul-19 23:33S 30°13' E 032°47'1919.0
2016-Jul-19 22:33S 30°08' E 032°26'1918.8
2016-Jul-19 21:33S 30°04' E 032°05'1818.4
2016-Jul-19 20:34S 29°59' E 031°44'1818.0
2016-Jul-19 19:33S 29°55' E 031°24'1817.7
2016-Jul-19 18:34S 29°51' E 031°04'2 1.8
2016-Jul-19 17:33S 29°52' E 031°02'0 0.0
2016-Jul-19 16:33S 29°52' E 031°02'0 0.0
2016-Jul-19 15:33S 29°52' E 031°02'0 0.0
2016-Jul-19 14:33S 29°52' E 031°02'0 0.0
2016-Jul-19 13:33S 29°52' E 031°02'0 0.0
2016-Jul-19 12:33S 29°52' E 031°02'0 0.0
2016-Jul-19 11:33S 29°52' E 031°02'0 0.0
2016-Jul-19 10:33S 29°52' E 031°02'0 0.0
2016-Jul-19 09:33S 29°52' E 031°02'0 0.0
2016-Jul-19 08:33S 29°52' E 031°02'1 0.9
2016-Jul-19 07:33S 29°53' E 031°03'3 3.0
2016-Jul-19 06:33S 29°53' E 031°07'3015.1
2016-Jul-19 04:34S 30°20' E 030°51'1515.3
2016-Jul-19 03:34S 30°33' E 030°42'1615.5
2016-Jul-19 02:34S 30°47' E 030°34'1716.4
2016-Jul-19 01:30S 31°01' E 030°21'  

Dump ship's entire track history